Portada
METAR-TAF:

METAR-TAF

Aeroports :

Jammu, Índia

latitud: 32-41-21N, longitud: 74-50-15E, altitud: 314 m

Observació

L'informe es va fer fa 4 hores i 17 minuts, a les 00:30 UTC
Vent 2 kt amb direcció variable
Temperatura 15°C
Humitat 77%
Pressió 1014 hPa
Visibilitat: 6000 m
Escasses núvols a una alçada de 2500 ft
Núvols disperses a una alçada de 9000 ft
Cel ennuvolat a una alçada de 20000 ft

METAR: VIJU 230030Z VRB02KT 6000 FEW025 SCT090 BKN200 15/11 Q1014 NOSIG

Hora: 10:17 (04:47 UTC)

Pronòstic

L'informe es va fer fa 25 hores i 17 minuts, a les 03:30 UTC
Pronòstic vàlid del 22 a les 06 UTC al 22 a les 18 UTC
Vent 5 kt del Oest
Visibilitat: 6000 m
Escasses núvols a una alçada de 3000 ft
Escasses núvols a una alçada de 9000 ft
Temporalment
l' 22 a les 07 UTC al 22 a les 12 UTC
Escasses núvols a una alçada de 4000 ft, Cumulus congestus.

TAF: VIJU 220330Z 2206/2218 26005KT 6000 FEW030 FEW090 TEMPO 2207/2212 FEW040TCU

Observacions i pronòstics meteorològics de més de 4000 aeroports (METAR i TAF).

Les estacions disponibles són els punts grocs i vermells al mapa.

Posi el ratolí al punt desitjat per veure el nom de l'estació.

Feu clic per veure les observacions i els pronòstics meteorològics.

Per canviar el mapa: feu clic els botons verds amb una creu de color negre per apropar; al botó verd amb un guió per allunyar la imatge; o en les fletxes verdes per a mapes adjacents.


METAR-TAF: